Time;durP1;ratioP1;P1;durP2;ratioP2;P2;SDS_P1;SDS_P2;PMS_P1;PMS_P2;Temp;Humidity;BMP_temperature;BMP_pressure;BME280_temperature;BME280_humidity;BME280_pressure;Samples;Min_cycle;Max_cycle;Signal;HPM_P1;HPM_P2
2023/02/13 00:09:48;;;;;;;67.03;29.45;;;;;;;3.23;100.00;102350.06;21013239;28;20500;-68
2023/02/13 00:19:50;;;;;;;58.55;25.17;;;;;;;3.12;100.00;102347.00;21033669;28;20062;-68
2023/02/13 00:29:51;;;;;;;56.85;26.60;;;;;;;3.10;100.00;102356.38;21032296;28;20060;-69
2023/02/13 00:39:52;;;;;;;62.92;26.83;;;;;;;3.06;100.00;102341.53;21032148;28;20416;-69
2023/02/13 00:49:53;;;;;;;57.65;24.10;;;;;;;2.97;100.00;102334.25;21033391;28;20117;-68
2023/02/13 00:59:55;;;;;;;58.35;25.52;;;;;;;3.00;100.00;102349.91;21030032;28;20059;-68
2023/02/13 01:09:56;;;;;;;63.13;26.02;;;;;;;2.86;100.00;102348.38;21029619;28;20114;-69
2023/02/13 01:19:57;;;;;;;54.35;23.90;;;;;;;2.69;100.00;102342.41;21027711;28;20420;-69
2023/02/13 01:29:59;;;;;;;52.90;24.23;;;;;;;2.64;100.00;102341.31;21028321;28;20056;-69
2023/02/13 01:40:00;;;;;;;58.72;24.67;;;;;;;2.49;100.00;102340.56;21026350;28;20475;-69
2023/02/13 01:50:01;;;;;;;58.10;25.55;;;;;;;2.44;100.00;102337.75;21026668;28;20055;-69
2023/02/13 02:00:02;;;;;;;70.55;26.35;;;;;;;2.47;100.00;102331.84;21024811;28;20087;-69
2023/02/13 02:10:04;;;;;;;71.35;26.67;;;;;;;2.54;100.00;102336.53;21627196;22;20064;-69
2023/02/13 02:20:05;;;;;;;75.00;28.80;;;;;;;2.46;100.00;102325.78;21066348;28;20135;-68
2023/02/13 02:30:06;;;;;;;78.03;29.67;;;;;;;2.30;100.00;102323.28;21090631;22;20133;-78
2023/02/13 02:40:17;;;;;;;86.13;32.15;;;;;;;2.11;100.00;102313.75;21009012;28;20064;-77
2023/02/13 02:50:21;;;;;;;83.55;30.77;;;;;;;2.11;100.00;102315.41;21036438;28;20515;-77
2023/02/13 03:32:00;;;;;;;99.72;33.63;;;;;;;2.20;100.00;102337.44;20997672;22;20064;-67
2023/02/13 03:42:02;;;;;;;97.25;34.17;;;;;;;2.22;100.00;102353.91;20975902;28;20079;-68
2023/02/13 03:52:03;;;;;;;98.22;35.40;;;;;;;2.30;100.00;102362.94;20989642;28;20512;-67
2023/02/13 04:02:04;;;;;;;99.05;35.30;;;;;;;2.31;100.00;102371.59;20993839;28;20048;-67
2023/02/13 04:12:06;;;;;;;88.05;32.78;;;;;;;2.27;100.00;102365.38;20988483;28;20048;-68
2023/02/13 04:22:07;;;;;;;101.43;35.17;;;;;;;2.21;100.00;102370.25;20988722;28;20060;-69
2023/02/13 04:32:08;;;;;;;105.00;35.95;;;;;;;2.34;100.00;102376.00;20989264;28;20053;-68
2023/02/13 04:42:10;;;;;;;91.10;34.45;;;;;;;2.27;100.00;102370.53;20986862;28;20577;-69
2023/02/13 04:52:11;;;;;;;95.28;35.00;;;;;;;2.27;100.00;102360.19;20985595;28;20094;-69
2023/02/13 05:02:12;;;;;;;85.28;31.42;;;;;;;2.28;100.00;102364.56;20986018;28;20056;-69
2023/02/13 05:12:14;;;;;;;79.53;31.35;;;;;;;2.16;100.00;102355.31;20988084;28;20060;-69
2023/02/13 05:32:35;;;;;;;91.35;33.78;;;;;;;2.31;100.00;102356.97;20981779;28;20056;-69
2023/02/13 05:42:36;;;;;;;89.50;32.22;;;;;;;2.15;100.00;102354.41;20986002;28;20507;-69
2023/02/13 05:52:37;;;;;;;85.50;32.50;;;;;;;2.05;100.00;102354.75;20983321;28;20057;-69
2023/02/13 06:02:39;;;;;;;89.00;31.42;;;;;;;2.10;100.00;102350.72;20981665;28;20059;-69
2023/02/13 06:12:40;;;;;;;79.15;29.73;;;;;;;1.95;100.00;102342.19;20983376;28;20177;-68
2023/02/13 06:22:41;;;;;;;76.97;30.83;;;;;;;2.06;100.00;102353.97;20981792;28;20102;-68
2023/02/13 06:32:42;;;;;;;74.35;30.17;;;;;;;1.86;100.00;102358.13;20979601;28;20057;-68
2023/02/13 06:42:44;;;;;;;71.82;28.73;;;;;;;1.98;100.00;102363.03;20982189;28;20067;-68
2023/02/13 06:52:45;;;;;;;68.28;28.08;;;;;;;1.82;100.00;102374.28;20980939;28;20369;-68
2023/02/13 07:02:46;;;;;;;69.30;29.98;;;;;;;1.86;100.00;102380.47;20979398;28;20048;-68
2023/02/13 07:12:49;;;;;;;73.93;28.52;;;;;;;1.84;100.00;102374.34;20977178;28;20146;-67
2023/02/13 07:23:06;;;;;;;67.10;27.30;;;;;;;1.68;100.00;102385.59;20987547;28;20594;-67
2023/02/13 07:33:07;;;;;;;72.40;28.73;;;;;;;1.88;100.00;102399.53;20993678;28;20135;-68
2023/02/13 07:43:08;;;;;;;63.47;26.25;;;;;;;2.02;100.00;102402.03;20992683;28;20048;-69
2023/02/13 07:53:09;;;;;;;62.45;26.73;;;;;;;2.13;100.00;102399.97;20994164;28;20053;-68
2023/02/13 08:03:11;;;;;;;57.08;24.23;;;;;;;2.11;100.00;102406.78;20995527;28;20063;-68
2023/02/13 08:13:12;;;;;;;53.30;24.67;;;;;;;2.37;100.00;102407.19;20984243;28;20056;-68
2023/02/13 09:04:21;;;;;;;44.60;21.63;;;;;;;3.27;100.00;102401.19;22255672;22;20147;-68
2023/02/13 09:14:22;;;;;;;40.63;20.95;;;;;;;3.14;100.00;102397.13;20903368;28;20061;-68
2023/02/13 09:24:25;;;;;;;40.75;21.00;;;;;;;3.73;100.00;102396.34;20931169;28;20057;-67
2023/02/13 09:34:26;;;;;;;36.60;18.60;;;;;;;3.97;100.00;102401.72;20942172;28;20526;-67
2023/02/13 09:44:33;;;;;;;33.67;16.27;;;;;;;4.45;100.00;102406.31;20941732;28;20052;-68
2023/02/13 09:54:35;;;;;;;32.95;16.42;;;;;;;4.53;100.00;102410.13;20942570;28;20056;-67
2023/02/13 10:04:38;;;;;;;36.50;19.15;;;;;;;4.90;100.00;102407.31;20929599;28;20060;-71
2023/02/13 10:14:39;;;;;;;31.02;16.60;;;;;;;5.27;100.00;102413.91;20900232;28;20056;-69
2023/02/13 10:24:40;;;;;;;33.63;18.55;;;;;;;4.97;100.00;102416.22;20935418;28;20060;-70
2023/02/13 10:34:42;;;;;;;36.45;18.58;;;;;;;4.69;100.00;102406.44;20941980;28;20060;-69
2023/02/13 10:44:43;;;;;;;37.60;18.38;;;;;;;5.14;100.00;102399.59;20941249;28;20669;-70
2023/02/13 10:54:46;;;;;;;35.00;18.02;;;;;;;5.47;100.00;102396.50;20944114;28;20087;-70
2023/02/13 11:04:48;;;;;;;30.27;15.77;;;;;;;5.95;100.00;102383.53;20897654;28;20053;-70
2023/02/13 11:14:49;;;;;;;32.92;16.95;;;;;;;5.98;100.00;102373.22;20924603;28;20144;-70
2023/02/13 11:24:50;;;;;;;30.90;16.50;;;;;;;6.15;100.00;102362.59;20940912;28;20056;-71
2023/02/13 11:34:53;;;;;;;27.05;16.02;;;;;;;6.21;100.00;102354.09;20936516;28;20052;-70
2023/02/13 11:44:54;;;;;;;32.20;17.10;;;;;;;6.43;100.00;102342.69;20939858;28;20136;-70
2023/02/13 11:54:56;;;;;;;27.42;15.07;;;;;;;6.61;100.00;102343.28;20937393;28;20071;-70
2023/02/13 12:04:57;;;;;;;27.40;15.07;;;;;;;6.84;100.00;102330.97;20941146;28;20049;-70
2023/02/13 12:14:58;;;;;;;25.52;14.30;;;;;;;7.16;100.00;102331.06;20953709;28;20052;-70
2023/02/13 12:25:00;;;;;;;26.60;14.02;;;;;;;7.66;100.00;102324.63;20951013;28;20063;-70
2023/02/13 12:35:01;;;;;;;23.58;13.48;;;;;;;7.67;100.00;102316.00;20951223;28;20167;-71
2023/02/13 12:45:02;;;;;;;32.45;16.63;;;;;;;7.40;100.00;102313.50;20953113;28;20415;-70
2023/02/13 12:55:04;;;;;;;25.30;15.88;;;;;;;7.67;100.00;102294.25;20950831;28;20063;-69
2023/02/13 13:05:05;;;;;;;27.98;15.55;;;;;;;7.78;100.00;102282.38;20948535;28;20052;-72
2023/02/13 13:15:06;;;;;;;29.00;14.88;;;;;;;7.78;100.00;102282.38;20949931;28;20048;-69
2023/02/13 13:25:08;;;;;;;27.83;15.80;;;;;;;7.83;100.00;102275.56;20946601;28;20098;-70
2023/02/13 13:35:09;;;;;;;25.42;15.48;;;;;;;7.99;100.00;102274.19;20952743;28;20071;-70
2023/02/13 13:45:10;;;;;;;21.55;13.48;;;;;;;8.35;100.00;102274.22;20945460;28;20056;-70
2023/02/13 13:55:11;;;;;;;23.02;13.20;;;;;;;8.26;100.00;102266.19;20946494;28;20221;-71
2023/02/13 14:05:13;;;;;;;24.08;13.45;;;;;;;8.22;100.00;102266.94;20946774;28;20057;-70
2023/02/13 14:15:14;;;;;;;19.85;12.10;;;;;;;8.39;100.00;102257.81;20942480;28;20060;-70
2023/02/13 14:25:15;;;;;;;24.63;12.68;;;;;;;8.52;100.00;102260.69;20942331;28;20111;-69
2023/02/13 14:35:17;;;;;;;24.30;14.02;;;;;;;8.33;100.00;102244.56;20942095;28;20063;-68
2023/02/13 14:45:18;;;;;;;22.83;13.05;;;;;;;8.48;100.00;102228.44;20939601;28;20106;-68
2023/02/13 14:55:19;;;;;;;21.95;13.00;;;;;;;8.61;100.00;102221.75;20939915;28;20489;-68
2023/02/13 15:05:21;;;;;;;20.48;12.48;;;;;;;8.81;100.00;102214.31;20940219;28;20048;-68
2023/02/13 15:15:22;;;;;;;23.33;13.55;;;;;;;8.98;100.00;102213.81;20940526;28;20052;-68
2023/02/13 15:25:23;;;;;;;20.63;12.52;;;;;;;9.04;100.00;102206.94;20939678;28;20119;-69
2023/02/13 15:35:27;;;;;;;19.23;11.25;;;;;;;8.80;100.00;102194.28;20939270;28;20079;-68
2023/02/13 15:45:28;;;;;;;22.02;12.50;;;;;;;8.66;100.00;102202.69;20950717;28;20056;-68
2023/02/13 15:55:29;;;;;;;21.33;13.10;;;;;;;8.84;100.00;102198.72;20954038;28;20530;-69
2023/02/13 16:05:30;;;;;;;23.90;12.32;;;;;;;8.70;100.00;102195.81;20948969;28;20065;-68
2023/02/13 16:15:40;;;;;;;21.20;12.68;;;;;;;8.57;100.00;102209.47;20954542;28;20483;-68
2023/02/13 16:25:42;;;;;;;22.55;13.40;;;;;;;8.29;100.00;102200.09;20968381;22;20060;-71
2023/02/13 16:35:43;;;;;;;20.95;13.48;;;;;;;7.96;100.00;102190.69;20953483;28;20067;-70
2023/02/13 16:45:44;;;;;;;26.85;15.35;;;;;;;7.55;100.00;102187.94;20949523;28;20060;-67
2023/02/13 16:55:46;;;;;;;17.38;10.05;;;;;;;6.80;100.00;102208.44;20950859;28;20071;-69
2023/02/13 17:05:47;;;;;;;28.35;16.00;;;;;;;6.38;100.00;102216.78;20948447;28;20060;-70
2023/02/13 17:15:50;;;;;;;37.95;22.10;;;;;;;6.05;100.00;102221.81;20942460;28;20420;-70
2023/02/13 17:25:52;;;;;;;44.22;22.73;;;;;;;5.74;100.00;102236.34;20944078;28;20095;-70
2023/02/13 17:35:53;;;;;;;38.80;22.83;;;;;;;5.42;100.00;102242.19;20940595;28;20103;-70
2023/02/13 17:45:55;;;;;;;36.47;19.88;;;;;;;5.07;100.00;102240.09;20938265;28;20053;-70
2023/02/13 17:55:56;;;;;;;35.38;19.73;;;;;;;4.85;100.00;102248.81;20938435;28;20057;-70
2023/02/13 18:05:57;;;;;;;31.67;18.00;;;;;;;4.61;100.00;102253.09;20937964;28;20056;-70
2023/02/13 18:15:59;;;;;;;42.40;24.10;;;;;;;4.43;100.00;102248.06;20935879;28;20076;-70
2023/02/13 18:26:00;;;;;;;51.17;27.05;;;;;;;4.29;100.00;102244.91;20935607;28;20052;-70
2023/02/13 18:36:01;;;;;;;69.22;32.67;;;;;;;4.10;100.00;102247.59;20937267;28;20056;-68
2023/02/13 18:46:03;;;;;;;56.95;29.95;;;;;;;3.94;100.00;102250.41;20935921;28;20063;-68
2023/02/13 18:56:05;;;;;;;53.70;29.38;;;;;;;3.71;100.00;102252.03;20933365;28;20060;-69
2023/02/13 19:06:06;;;;;;;54.60;30.08;;;;;;;3.50;100.00;102264.97;20926939;28;20075;-68
2023/02/13 19:16:08;;;;;;;51.33;29.70;;;;;;;3.36;100.00;102261.78;20935017;28;20429;-69
2023/02/13 19:26:09;;;;;;;55.90;31.48;;;;;;;3.13;100.00;102268.53;20938765;28;20432;-70
2023/02/13 19:36:11;;;;;;;55.63;29.13;;;;;;;2.89;100.00;102264.84;20926101;28;20057;-68
2023/02/13 19:46:13;;;;;;;52.13;27.80;;;;;;;2.69;100.00;102272.59;20927084;28;20119;-68
2023/02/13 19:56:15;;;;;;;54.83;28.58;;;;;;;2.52;100.00;102289.00;20937824;28;20072;-69
2023/02/13 20:06:16;;;;;;;53.22;27.52;;;;;;;2.43;100.00;102280.81;20923445;28;20053;-69
2023/02/13 20:16:17;;;;;;;87.22;42.53;;;;;;;2.30;100.00;102277.66;20925201;28;20552;-69
2023/02/13 20:26:19;;;;;;;82.90;41.35;;;;;;;2.15;100.00;102284.63;20927120;28;20485;-70
2023/02/13 20:36:20;;;;;;;62.35;33.45;;;;;;;2.01;100.00;102275.31;20942370;28;20052;-69
2023/02/13 20:46:22;;;;;;;76.10;35.05;;;;;;;1.86;100.00;102277.16;20948318;28;20500;-69
2023/02/13 20:56:23;;;;;;;82.28;38.45;;;;;;;1.79;100.00;102271.69;20938884;28;20491;-69
2023/02/13 21:06:24;;;;;;;119.70;46.90;;;;;;;1.62;100.00;102272.53;20937682;28;20647;-70
2023/02/13 21:16:25;;;;;;;67.90;31.92;;;;;;;1.43;100.00;102269.81;20937955;28;20063;-68
2023/02/13 21:26:27;;;;;;;74.10;34.85;;;;;;;1.32;100.00;102266.69;20938841;28;20144;-70
2023/02/13 21:36:28;;;;;;;61.50;30.92;;;;;;;1.23;100.00;102267.09;20939795;28;20053;-70
2023/02/13 21:46:29;;;;;;;61.72;30.83;;;;;;;1.12;100.00;102257.94;20939470;28;20095;-69
2023/02/13 21:56:31;;;;;;;71.13;33.85;;;;;;;1.18;100.00;102262.53;20937162;28;20057;-69
2023/02/13 22:06:32;;;;;;;86.38;36.38;;;;;;;1.32;100.00;102270.97;20938759;28;20280;-70
2023/02/13 22:16:33;;;;;;;80.60;35.70;;;;;;;1.35;100.00;102276.31;20933913;28;20060;-70
2023/02/13 22:26:34;;;;;;;68.50;30.88;;;;;;;1.12;100.00;102286.31;20937433;28;20562;-69
2023/02/13 22:36:37;;;;;;;58.90;26.45;;;;;;;0.79;100.00;102287.09;20971163;22;20045;-83
2023/02/13 22:46:39;;;;;;;58.92;28.23;;;;;;;0.77;100.00;102285.31;20964203;28;20053;-84
2023/02/13 22:56:40;;;;;;;73.53;27.45;;;;;;;0.85;100.00;102285.72;20955732;28;20068;-84
2023/02/13 23:06:42;;;;;;;69.45;26.38;;;;;;;0.70;100.00;102293.50;20972270;28;20552;-83
2023/02/13 23:27:03;;;;;;;59.22;26.08;;;;;;;0.91;100.00;102292.88;20967751;28;20056;-84
2023/02/13 23:37:04;;;;;;;86.28;24.70;;;;;;;0.90;100.00;102301.44;20910107;28;20057;-83
2023/02/13 23:47:06;;;;;;;218.73;29.60;;;;;;;0.86;100.00;102302.94;20953321;28;20500;-83
2023/02/13 23:57:07;;;;;;;58.10;22.02;;;;;;;0.84;100.00;102294.25;20964574;28;20152;-85
